createdAt,value
2019-03-08T00:00:04.767Z,988.88
2019-03-08T00:01:04.759Z,988.88
2019-03-08T00:02:04.752Z,988.81
2019-03-08T00:03:04.743Z,988.94
2019-03-08T00:04:04.743Z,988.99
2019-03-08T00:05:04.736Z,988.97
2019-03-08T00:06:04.703Z,989.01
2019-03-08T00:07:04.694Z,988.98
2019-03-08T00:08:04.689Z,988.93
2019-03-08T00:09:04.687Z,988.89
2019-03-08T00:10:04.664Z,988.97
2019-03-08T00:11:04.655Z,989.04
2019-03-08T00:12:04.637Z,989.06
2019-03-08T00:13:05.403Z,988.98
2019-03-08T00:14:04.620Z,989.07
2019-03-08T00:15:04.651Z,989.08
2019-03-08T00:16:04.612Z,989.02
2019-03-08T00:17:04.591Z,989.02
2019-03-08T00:18:04.594Z,989.06
2019-03-08T00:19:04.559Z,989.05
2019-03-08T00:20:04.548Z,989.01
2019-03-08T00:21:04.542Z,989.10
2019-03-08T00:22:04.534Z,989.05
2019-03-08T00:23:04.538Z,989.11
2019-03-08T00:24:04.511Z,989.13
2019-03-08T00:25:04.498Z,988.99
2019-03-08T00:26:04.499Z,989.07
2019-03-08T00:27:04.481Z,989.15
2019-03-08T00:28:04.486Z,989.13
2019-03-08T00:29:04.460Z,989.10
2019-03-08T00:30:04.442Z,989.14
2019-03-08T00:31:04.429Z,989.21
2019-03-08T00:32:04.431Z,989.15
2019-03-08T00:33:04.410Z,989.25
2019-03-08T00:34:04.403Z,989.23
2019-03-08T00:35:04.395Z,989.21
2019-03-08T00:36:04.385Z,989.26
2019-03-08T00:37:04.380Z,989.31
2019-03-08T00:38:04.369Z,989.23
2019-03-08T00:39:04.347Z,989.22
2019-03-08T00:40:04.340Z,989.26
2019-03-08T00:41:04.330Z,989.28
2019-03-08T00:42:04.312Z,989.25
2019-03-08T00:43:04.310Z,989.27
2019-03-08T00:44:04.288Z,989.22
2019-03-08T00:45:04.280Z,989.17
2019-03-08T00:46:04.271Z,989.32
2019-03-08T00:47:04.271Z,989.32
2019-03-08T00:48:04.264Z,989.34
2019-03-08T00:49:04.238Z,989.34
2019-03-08T00:50:04.228Z,989.40
2019-03-08T00:51:04.212Z,989.43
2019-03-08T00:52:04.200Z,989.41
2019-03-08T00:53:04.204Z,989.38
2019-03-08T00:54:04.188Z,989.42
2019-03-08T00:55:04.179Z,989.44
2019-03-08T00:56:04.161Z,989.45
2019-03-08T00:57:04.171Z,989.46
2019-03-08T00:58:04.152Z,989.52
2019-03-08T00:59:04.136Z,989.54
2019-03-08T01:00:04.126Z,989.49
2019-03-08T01:01:04.108Z,989.56
2019-03-08T01:02:04.095Z,989.59
2019-03-08T01:03:04.093Z,989.56
2019-03-08T01:04:04.086Z,989.59
2019-03-08T01:05:04.064Z,989.57
2019-03-08T01:06:04.057Z,989.57
2019-03-08T01:07:04.046Z,989.61
2019-03-08T01:08:04.037Z,989.67
2019-03-08T01:09:04.087Z,989.67
2019-03-08T01:10:04.011Z,989.61
2019-03-08T01:11:03.995Z,989.62
2019-03-08T01:12:03.995Z,989.74
2019-03-08T01:13:03.980Z,989.67
2019-03-08T01:14:03.980Z,989.76
2019-03-08T01:15:03.953Z,989.79
2019-03-08T01:16:03.940Z,989.76
2019-03-08T01:17:03.949Z,989.72
2019-03-08T01:18:03.924Z,989.73
2019-03-08T01:19:03.917Z,989.70
2019-03-08T01:20:03.906Z,989.79
2019-03-08T01:21:03.891Z,989.81
2019-03-08T01:22:03.893Z,989.79
2019-03-08T01:23:03.881Z,989.81
2019-03-08T01:24:03.855Z,989.73
2019-03-08T01:25:03.874Z,989.74
2019-03-08T01:26:03.838Z,989.79
2019-03-08T01:27:03.830Z,989.80
2019-03-08T01:28:03.817Z,989.75
2019-03-08T01:29:03.826Z,989.75
2019-03-08T01:30:03.797Z,989.74
2019-03-08T01:31:03.796Z,989.77
2019-03-08T01:32:05.486Z,989.82
2019-03-08T01:33:03.765Z,989.77
2019-03-08T01:34:03.750Z,989.82
2019-03-08T01:35:03.734Z,989.80
2019-03-08T01:36:03.735Z,989.83
2019-03-08T01:37:03.715Z,989.87
2019-03-08T01:38:03.710Z,989.85
2019-03-08T01:39:03.700Z,989.90
2019-03-08T01:40:03.688Z,989.88
2019-03-08T01:41:03.677Z,989.91
2019-03-08T01:42:03.674Z,989.97
2019-03-08T01:43:03.654Z,989.88
2019-03-08T01:44:03.644Z,989.94
2019-03-08T01:45:03.849Z,989.94
2019-03-08T01:46:03.630Z,989.86
2019-03-08T01:47:03.614Z,989.97
2019-03-08T01:48:03.609Z,989.96
2019-03-08T01:49:03.589Z,989.95
2019-03-08T01:50:03.609Z,989.95
2019-03-08T01:51:03.570Z,989.98
2019-03-08T01:52:03.580Z,990.00
2019-03-08T01:53:03.547Z,990.02
2019-03-08T01:54:03.527Z,989.94
2019-03-08T01:55:03.521Z,989.98
2019-03-08T01:56:03.512Z,989.97
2019-03-08T01:57:03.509Z,990.02
2019-03-08T01:58:03.492Z,990.03
2019-03-08T01:59:03.484Z,990.05
2019-03-08T02:00:03.465Z,990.06
2019-03-08T02:01:03.453Z,990.03
2019-03-08T02:02:03.461Z,990.09
2019-03-08T02:03:03.439Z,990.03
2019-03-08T02:04:03.426Z,990.07
2019-03-08T02:05:03.426Z,990.02
2019-03-08T02:06:03.397Z,990.05
2019-03-08T02:07:03.413Z,990.04
2019-03-08T02:08:03.378Z,990.04
2019-03-08T02:09:03.363Z,990.05
2019-03-08T02:10:03.366Z,990.08
2019-03-08T02:11:03.348Z,990.07
2019-03-08T02:12:03.342Z,990.07
2019-03-08T02:13:03.341Z,990.08
2019-03-08T02:14:03.316Z,990.07
2019-03-08T02:15:03.303Z,990.05
2019-03-08T02:16:03.294Z,990.07
2019-03-08T02:17:03.285Z,990.09
2019-03-08T02:18:03.279Z,990.12
2019-03-08T02:19:03.260Z,990.04
2019-03-08T02:20:03.254Z,990.06
2019-03-08T02:21:06.738Z,990.08
2019-03-08T02:22:03.232Z,990.06
2019-03-08T02:23:03.232Z,990.08
2019-03-08T02:24:03.210Z,990.07
2019-03-08T02:25:03.200Z,990.09
2019-03-08T02:26:03.182Z,990.08
2019-03-08T02:27:03.173Z,990.10
2019-03-08T02:28:03.182Z,990.12
2019-03-08T02:29:03.161Z,990.11
2019-03-08T02:30:03.145Z,990.10
2019-03-08T02:31:03.132Z,990.14
2019-03-08T02:32:03.147Z,990.15
2019-03-08T02:33:03.107Z,990.11
2019-03-08T02:34:03.142Z,990.07
2019-03-08T02:35:03.117Z,990.12
2019-03-08T02:36:03.103Z,990.11
2019-03-08T02:37:03.072Z,990.14
2019-03-08T02:38:03.048Z,990.10
2019-03-08T02:39:03.055Z,990.11
2019-03-08T02:40:03.032Z,990.07
2019-03-08T02:41:03.018Z,990.11
2019-03-08T02:42:03.014Z,990.04
2019-03-08T02:43:03.000Z,990.08
2019-03-08T02:44:03.048Z,990.10
2019-03-08T02:45:02.998Z,990.12
2019-03-08T02:46:02.963Z,990.13
2019-03-08T02:47:02.955Z,990.07
2019-03-08T02:48:02.953Z,990.20
2019-03-08T02:49:02.939Z,990.17
2019-03-08T02:50:02.919Z,990.11
2019-03-08T02:51:02.926Z,990.11
2019-03-08T02:52:02.901Z,990.17
2019-03-08T02:53:02.885Z,990.17
2019-03-08T02:54:02.901Z,990.20
2019-03-08T02:55:02.870Z,990.16
2019-03-08T02:56:02.876Z,990.23
2019-03-08T02:57:02.859Z,990.27
2019-03-08T02:58:02.834Z,990.28
2019-03-08T02:59:02.823Z,990.27
2019-03-08T03:00:02.824Z,990.31
2019-03-08T03:01:02.801Z,990.34
2019-03-08T03:02:02.797Z,990.31
2019-03-08T03:03:02.794Z,990.30
2019-03-08T03:04:02.770Z,990.28
2019-03-08T03:05:02.755Z,990.35
2019-03-08T03:06:02.754Z,990.35
2019-03-08T03:07:02.743Z,990.35
2019-03-08T03:08:02.746Z,990.32
2019-03-08T03:09:02.720Z,990.33
2019-03-08T03:10:02.702Z,990.37
2019-03-08T03:11:02.693Z,990.37
2019-03-08T03:12:02.688Z,990.32
2019-03-08T03:13:02.668Z,990.41
2019-03-08T03:14:02.682Z,990.35
2019-03-08T03:15:02.663Z,990.39
2019-03-08T03:16:02.658Z,990.44
2019-03-08T03:17:02.634Z,990.36
2019-03-08T03:18:02.615Z,990.35
2019-03-08T03:19:02.634Z,990.35
2019-03-08T03:20:02.599Z,990.32
2019-03-08T03:21:02.608Z,990.30
2019-03-08T03:22:02.572Z,990.38
2019-03-08T03:23:02.563Z,990.37
2019-03-08T03:24:02.552Z,990.45
2019-03-08T03:25:02.542Z,990.43
2019-03-08T03:26:02.553Z,990.39
2019-03-08T03:27:02.523Z,990.40
2019-03-08T03:28:02.517Z,990.40
2019-03-08T03:29:02.521Z,990.45
2019-03-08T03:30:02.486Z,990.49
2019-03-08T03:31:02.486Z,990.43
2019-03-08T03:32:02.478Z,990.49
2019-03-08T03:33:02.457Z,990.53
2019-03-08T03:34:02.451Z,990.52
2019-03-08T03:35:02.438Z,990.55
2019-03-08T03:36:02.422Z,990.51
2019-03-08T03:37:02.423Z,990.55
2019-03-08T03:38:02.405Z,990.57
2019-03-08T03:39:02.403Z,990.55
2019-03-08T03:40:02.383Z,990.56
2019-03-08T03:41:02.377Z,990.59
2019-03-08T03:42:02.359Z,990.54
2019-03-08T03:43:02.363Z,990.58
2019-03-08T03:44:02.335Z,990.61
2019-03-08T03:45:02.322Z,990.59
2019-03-08T03:46:02.322Z,990.58
2019-03-08T03:47:02.351Z,990.58
2019-03-08T03:48:02.298Z,990.56
2019-03-08T03:49:02.298Z,990.63
2019-03-08T03:50:02.268Z,990.62
2019-03-08T03:51:02.261Z,990.61
2019-03-08T03:52:02.257Z,990.64
2019-03-08T03:53:02.246Z,990.64
2019-03-08T03:54:02.238Z,990.70
2019-03-08T03:55:02.215Z,990.65
2019-03-08T03:56:02.203Z,990.72
2019-03-08T03:57:02.193Z,990.64
2019-03-08T03:58:02.193Z,990.69
2019-03-08T03:59:02.188Z,990.74
2019-03-08T04:00:02.163Z,990.72
2019-03-08T04:01:02.155Z,990.74
2019-03-08T04:02:02.147Z,990.75
2019-03-08T04:03:02.141Z,990.76
2019-03-08T04:04:02.121Z,990.77
2019-03-08T04:05:02.118Z,990.74
2019-03-08T04:06:02.102Z,990.72
2019-03-08T04:07:02.088Z,990.79
2019-03-08T04:08:02.090Z,990.71
2019-03-08T04:09:02.065Z,990.83
2019-03-08T04:10:02.061Z,990.85
2019-03-08T04:11:02.055Z,990.80
2019-03-08T04:12:02.036Z,990.80
2019-03-08T04:13:02.025Z,990.82
2019-03-08T04:14:02.006Z,990.81
2019-03-08T04:15:02.028Z,990.84
2019-03-08T04:16:02.016Z,990.86
2019-03-08T04:17:01.977Z,990.85
2019-03-08T04:18:01.971Z,990.82
2019-03-08T04:19:01.977Z,990.84
2019-03-08T04:20:01.953Z,990.94
2019-03-08T04:21:01.945Z,990.96
2019-03-08T04:22:01.921Z,990.97
2019-03-08T04:23:01.923Z,991.04
2019-03-08T04:24:01.903Z,991.04
2019-03-08T04:25:01.894Z,991.05
2019-03-08T04:26:01.879Z,991.05
2019-03-08T04:27:01.870Z,991.07
2019-03-08T04:28:01.911Z,991.14
2019-03-08T04:29:01.855Z,991.10
2019-03-08T04:30:01.842Z,991.10
2019-03-08T04:31:01.830Z,991.18
2019-03-08T04:32:01.817Z,991.06
2019-03-08T04:33:01.824Z,991.11
2019-03-08T04:34:01.803Z,991.10
2019-03-08T04:35:01.779Z,991.14
2019-03-08T04:36:01.768Z,991.12
2019-03-08T04:37:01.761Z,991.16
2019-03-08T04:38:01.766Z,991.16
2019-03-08T04:39:01.750Z,991.14
2019-03-08T04:40:01.728Z,991.15
2019-03-08T04:41:01.714Z,991.16
2019-03-08T04:42:01.709Z,991.19
2019-03-08T04:43:01.695Z,991.21
2019-03-08T04:44:01.699Z,991.20
2019-03-08T04:45:01.700Z,991.27
2019-03-08T04:46:01.657Z,991.26
2019-03-08T04:47:01.649Z,991.24
2019-03-08T04:48:01.649Z,991.19
2019-03-08T04:49:01.627Z,991.32
2019-03-08T04:50:01.623Z,991.29
2019-03-08T04:51:01.609Z,991.31
2019-03-08T04:52:01.599Z,991.34
2019-03-08T04:53:01.602Z,991.33
2019-03-08T04:54:01.573Z,991.40
2019-03-08T04:55:01.588Z,991.41
2019-03-08T04:56:01.558Z,991.43
2019-03-08T04:57:01.566Z,991.43
2019-03-08T04:58:01.528Z,991.47
2019-03-08T04:59:01.525Z,991.43
2019-03-08T05:00:01.520Z,991.49
2019-03-08T05:01:01.501Z,991.52
2019-03-08T05:02:01.499Z,991.51
2019-03-08T05:03:01.478Z,991.55
2019-03-08T05:04:01.469Z,991.56
2019-03-08T05:05:01.535Z,991.55
2019-03-08T05:06:01.441Z,991.59
2019-03-08T05:07:01.435Z,991.60
2019-03-08T05:08:01.425Z,991.60
2019-03-08T05:09:01.406Z,991.63
2019-03-08T05:10:01.415Z,991.65
2019-03-08T05:11:01.406Z,991.66
2019-03-08T05:12:01.376Z,991.67
2019-03-08T05:13:01.368Z,991.69
2019-03-08T05:14:01.363Z,991.68
2019-03-08T05:15:01.347Z,991.71
2019-03-08T05:16:01.356Z,991.69
2019-03-08T05:17:01.329Z,991.72
2019-03-08T05:18:01.309Z,991.70
2019-03-08T05:19:01.310Z,991.70
2019-03-08T05:20:01.291Z,991.75
2019-03-08T05:21:01.277Z,991.74
2019-03-08T05:22:01.292Z,991.75
2019-03-08T05:23:01.265Z,991.78
2019-03-08T05:24:01.252Z,991.79
2019-03-08T05:25:01.245Z,991.82
2019-03-08T05:26:01.222Z,991.82
2019-03-08T05:27:01.215Z,991.87
2019-03-08T05:28:01.229Z,991.86
2019-03-08T05:29:01.199Z,991.85
2019-03-08T05:30:01.183Z,991.80
2019-03-08T05:31:01.171Z,991.81
2019-03-08T05:32:01.160Z,991.90
2019-03-08T05:33:01.146Z,992.01
2019-03-08T05:34:01.165Z,992.01
2019-03-08T05:35:01.186Z,992.02
2019-03-08T05:36:01.133Z,991.99
2019-03-08T05:37:01.111Z,992.03
2019-03-08T05:38:01.092Z,992.04
2019-03-08T05:39:01.085Z,992.08
2019-03-08T05:40:01.088Z,992.06
2019-03-08T05:41:01.060Z,992.10
2019-03-08T05:42:01.059Z,992.09
2019-03-08T05:43:01.043Z,992.12
2019-03-08T05:44:01.031Z,992.11
2019-03-08T05:45:01.027Z,992.13
2019-03-08T05:46:01.034Z,992.24
2019-03-08T05:47:01.001Z,992.22
2019-03-08T05:48:00.994Z,992.24
2019-03-08T05:49:00.984Z,992.25
2019-03-08T05:50:00.963Z,992.27
2019-03-08T05:51:00.957Z,992.27
2019-03-08T05:52:00.958Z,992.32
2019-03-08T05:53:00.935Z,992.31
2019-03-08T05:54:00.930Z,992.34
2019-03-08T05:55:00.915Z,992.41
2019-03-08T05:56:00.902Z,992.44
2019-03-08T05:57:00.914Z,992.45
2019-03-08T05:58:00.876Z,992.46
2019-03-08T05:59:00.877Z,992.50
2019-03-08T06:00:00.859Z,992.59
2019-03-08T06:01:00.850Z,992.60
2019-03-08T06:02:00.843Z,992.65
2019-03-08T06:03:00.837Z,992.70
2019-03-08T06:04:00.815Z,992.77
2019-03-08T06:05:00.813Z,992.76
2019-03-08T06:06:00.813Z,992.84
2019-03-08T06:07:00.782Z,992.93
2019-03-08T06:08:00.775Z,992.92
2019-03-08T06:09:00.780Z,992.98
2019-03-08T06:10:00.747Z,993.01
2019-03-08T06:11:00.740Z,993.08
2019-03-08T06:12:00.732Z,993.09
2019-03-08T06:13:00.713Z,993.16
2019-03-08T06:14:00.709Z,993.18
2019-03-08T06:15:00.711Z,993.24
2019-03-08T06:16:00.696Z,993.23
2019-03-08T06:17:00.669Z,993.24
2019-03-08T06:18:00.663Z,993.27
2019-03-08T06:19:00.666Z,993.25
2019-03-08T06:20:00.643Z,993.27
2019-03-08T06:21:00.630Z,993.38
2019-03-08T06:22:00.627Z,993.47
2019-03-08T06:23:00.603Z,993.47
2019-03-08T06:24:00.607Z,993.57
2019-03-08T06:25:00.622Z,993.54
2019-03-08T06:26:00.587Z,993.54
2019-03-08T06:27:00.567Z,993.58
2019-03-08T06:28:00.562Z,993.62
2019-03-08T06:29:00.556Z,993.62
2019-03-08T06:30:00.535Z,993.64
2019-03-08T06:31:00.517Z,993.67
2019-03-08T06:32:00.513Z,993.72
2019-03-08T06:33:00.502Z,993.75
2019-03-08T06:34:00.505Z,993.80
2019-03-08T06:35:00.537Z,993.84
2019-03-08T06:36:00.461Z,993.89
2019-03-08T06:37:00.462Z,993.87
2019-03-08T06:38:00.447Z,993.96
2019-03-08T06:39:00.437Z,993.97
2019-03-08T06:40:00.447Z,993.98
2019-03-08T06:41:00.413Z,993.97
2019-03-08T06:42:00.406Z,993.97
2019-03-08T06:43:00.387Z,994.00
2019-03-08T06:44:00.378Z,994.05
2019-03-08T06:45:00.373Z,994.05
2019-03-08T06:46:00.370Z,994.13
2019-03-08T06:47:00.364Z,994.11
2019-03-08T06:48:00.332Z,994.15
2019-03-08T06:49:00.323Z,994.21
2019-03-08T06:50:00.357Z,994.24
2019-03-08T06:51:00.307Z,994.25
2019-03-08T06:52:00.987Z,994.29
2019-03-08T06:53:00.285Z,994.32
2019-03-08T06:54:00.285Z,994.32
2019-03-08T06:55:00.305Z,994.36
2019-03-08T06:56:00.246Z,994.37
2019-03-08T06:57:00.236Z,994.36
2019-03-08T06:58:00.228Z,994.38
2019-03-08T06:59:00.220Z,994.44
2019-03-08T07:00:00.323Z,994.41
2019-03-08T07:01:00.201Z,994.42
2019-03-08T07:02:00.204Z,994.47
2019-03-08T07:03:00.172Z,994.51
2019-03-08T07:04:00.166Z,994.52
2019-03-08T07:05:00.290Z,994.52
2019-03-08T07:06:00.141Z,994.58
2019-03-08T07:07:00.126Z,994.56
2019-03-08T07:08:00.125Z,994.60
2019-03-08T07:09:00.105Z,994.58
2019-03-08T07:10:00.115Z,994.64
2019-03-08T07:11:00.102Z,994.69
2019-03-08T07:12:00.090Z,994.71
2019-03-08T07:13:03.619Z,994.69
2019-03-08T07:14:00.052Z,994.78
2019-03-08T07:15:00.038Z,994.80
2019-03-08T07:16:00.042Z,994.78
2019-03-08T07:17:00.052Z,994.80
2019-03-08T07:18:00.012Z,994.82
2019-03-08T07:19:00.003Z,994.83
2019-03-08T07:19:59.987Z,994.86
2019-03-08T07:20:59.975Z,994.89
2019-03-08T07:21:59.979Z,994.92
2019-03-08T07:22:59.962Z,994.94
2019-03-08T07:23:59.956Z,995.06
2019-03-08T07:24:59.938Z,995.05
2019-03-08T07:25:59.926Z,995.11
2019-03-08T07:26:59.927Z,995.12
2019-03-08T07:27:59.899Z,995.11
2019-03-08T07:28:59.889Z,995.12
2019-03-08T07:29:59.889Z,995.16
2019-03-08T07:30:59.873Z,995.21
2019-03-08T07:31:59.870Z,995.22
2019-03-08T07:32:59.862Z,995.33
2019-03-08T07:33:59.835Z,995.32
2019-03-08T07:34:59.820Z,995.36
2019-03-08T07:35:59.819Z,995.40
2019-03-08T07:36:59.807Z,995.35
2019-03-08T07:37:59.792Z,995.44
2019-03-08T07:38:59.790Z,995.53
2019-03-08T07:39:59.767Z,995.52
2019-03-08T07:40:59.757Z,995.55
2019-03-08T07:41:59.750Z,995.66
2019-03-08T07:42:59.743Z,995.60
2019-03-08T07:43:59.756Z,995.57
2019-03-08T07:44:59.718Z,995.64
2019-03-08T07:45:59.705Z,995.66
2019-03-08T07:46:59.690Z,995.62
2019-03-08T07:47:59.753Z,995.70
2019-03-08T07:48:59.671Z,995.75
2019-03-08T07:49:59.681Z,995.80
2019-03-08T07:50:59.654Z,995.81
2019-03-08T07:51:59.635Z,995.88
2019-03-08T07:52:59.627Z,995.91
2019-03-08T07:53:59.619Z,995.84
2019-03-08T07:54:59.626Z,995.96
2019-03-08T07:55:59.600Z,996.02
2019-03-08T07:56:59.588Z,996.04
2019-03-08T07:57:59.573Z,996.09
2019-03-08T07:58:59.560Z,996.15
2019-03-08T07:59:59.556Z,996.15
2019-03-08T08:00:59.553Z,996.12
2019-03-08T08:01:59.532Z,996.20
2019-03-08T08:03:03.623Z,996.18
2019-03-08T08:04:00.512Z,996.27
2019-03-08T08:04:59.502Z,996.25
2019-03-08T08:05:59.498Z,996.27
2019-03-08T08:06:59.473Z,996.28
2019-03-08T08:07:59.470Z,996.32
2019-03-08T08:08:59.456Z,996.29
2019-03-08T08:09:59.444Z,996.36
2019-03-08T08:10:59.443Z,996.39
2019-03-08T08:11:59.418Z,996.39
2019-03-08T08:12:59.418Z,996.45
2019-03-08T08:13:59.404Z,996.46
2019-03-08T08:14:59.402Z,996.40
2019-03-08T08:15:59.401Z,996.50
2019-03-08T08:16:59.377Z,996.51
2019-03-08T08:17:59.361Z,996.49
2019-03-08T08:18:59.350Z,996.44
2019-03-08T08:19:59.333Z,996.45
2019-03-08T08:21:01.166Z,996.55
2019-03-08T08:21:59.332Z,996.57
2019-03-08T08:22:59.308Z,996.54
2019-03-08T08:23:59.287Z,996.60
2019-03-08T08:24:59.278Z,996.61
2019-03-08T08:25:59.274Z,996.58
2019-03-08T08:26:59.280Z,996.59
2019-03-08T08:27:59.274Z,996.62
2019-03-08T08:28:59.238Z,996.63
2019-03-08T08:29:59.224Z,996.62
2019-03-08T08:30:59.210Z,996.61
2019-03-08T08:31:59.225Z,996.69
2019-03-08T08:32:59.191Z,996.70
2019-03-08T08:33:59.186Z,996.70
2019-03-08T08:34:59.177Z,996.73
2019-03-08T08:35:59.165Z,996.67
2019-03-08T08:36:59.152Z,996.79
2019-03-08T08:37:59.155Z,996.78
2019-03-08T08:38:59.126Z,996.82
2019-03-08T08:39:59.122Z,996.85
2019-03-08T08:40:59.108Z,996.85
2019-03-08T08:41:59.096Z,996.88
2019-03-08T08:42:59.093Z,996.88
2019-03-08T08:43:59.083Z,996.96
2019-03-08T08:44:59.069Z,996.87
2019-03-08T08:45:59.054Z,996.89
2019-03-08T08:46:59.049Z,996.97
2019-03-08T08:47:59.056Z,996.98
2019-03-08T08:48:59.032Z,996.92
2019-03-08T08:49:59.007Z,996.96
2019-03-08T08:50:58.994Z,997.04
2019-03-08T08:51:58.987Z,997.07
2019-03-08T08:52:58.976Z,997.10
2019-03-08T08:53:58.985Z,997.17
2019-03-08T08:54:58.963Z,997.21
2019-03-08T08:55:58.940Z,997.18
2019-03-08T08:56:58.931Z,997.20
2019-03-08T08:57:58.932Z,997.26
2019-03-08T08:58:58.930Z,997.23
2019-03-08T08:59:58.911Z,997.24
2019-03-08T09:00:58.893Z,997.27
2019-03-08T09:01:58.879Z,997.24
2019-03-08T09:03:00.527Z,997.27
2019-03-08T09:03:58.852Z,997.23
2019-03-08T09:04:58.857Z,997.27
2019-03-08T09:05:58.835Z,997.28
2019-03-08T09:06:58.829Z,997.30
2019-03-08T09:07:58.816Z,997.32
2019-03-08T09:08:58.802Z,997.37
2019-03-08T09:09:58.799Z,997.38
2019-03-08T09:10:58.776Z,997.34
2019-03-08T09:11:58.772Z,997.41
2019-03-08T09:12:58.761Z,997.42
2019-03-08T09:13:58.763Z,997.45
2019-03-08T09:14:58.746Z,997.46
2019-03-08T09:15:58.732Z,997.47
2019-03-08T09:16:58.712Z,997.52
2019-03-08T09:17:58.705Z,997.56
2019-03-08T09:18:58.695Z,997.61
2019-03-08T09:19:59.387Z,997.58
2019-03-08T09:20:58.684Z,997.59
2019-03-08T09:21:58.655Z,997.60
2019-03-08T09:22:58.648Z,997.56
2019-03-08T09:23:58.643Z,997.58
2019-03-08T09:24:58.625Z,997.56
2019-03-08T09:25:58.635Z,997.59
2019-03-08T09:26:58.608Z,997.68
2019-03-08T09:27:58.590Z,997.74
2019-03-08T09:28:58.581Z,997.72
2019-03-08T09:29:58.573Z,997.74
2019-03-08T09:30:58.580Z,997.73
2019-03-08T09:31:58.565Z,997.72
2019-03-08T09:32:59.497Z,997.68
2019-03-08T09:33:58.526Z,997.77
2019-03-08T09:34:58.524Z,997.83
2019-03-08T09:35:58.504Z,997.80
2019-03-08T09:36:58.512Z,997.83
2019-03-08T09:37:58.489Z,997.88
2019-03-08T09:38:58.480Z,997.87
2019-03-08T09:39:58.466Z,997.89
2019-03-08T09:40:58.458Z,997.86
2019-03-08T09:41:58.455Z,997.91
2019-03-08T09:42:58.423Z,997.92
2019-03-08T09:43:58.421Z,997.93
2019-03-08T09:44:58.410Z,997.96
2019-03-08T09:45:58.407Z,997.94
2019-03-08T09:46:58.404Z,997.89
2019-03-08T09:47:58.368Z,998.00
2019-03-08T09:48:58.975Z,997.96
2019-03-08T09:49:58.354Z,998.02
2019-03-08T09:50:58.346Z,998.05
2019-03-08T09:51:58.333Z,998.09
2019-03-08T09:52:58.336Z,998.07
2019-03-08T09:53:58.307Z,998.08
2019-03-08T09:54:58.293Z,998.17
2019-03-08T09:55:58.285Z,998.23
2019-03-08T09:56:58.278Z,998.21
2019-03-08T09:57:58.266Z,998.25
2019-03-08T09:58:58.276Z,998.21
2019-03-08T09:59:58.238Z,998.22
2019-03-08T10:00:58.249Z,998.26
2019-03-08T10:01:58.238Z,998.26
2019-03-08T10:02:58.215Z,998.20
2019-03-08T10:03:58.203Z,998.25
2019-03-08T10:04:58.190Z,998.24
2019-03-08T10:05:58.178Z,998.24
2019-03-08T10:06:58.175Z,998.26
2019-03-08T10:07:58.151Z,998.29
2019-03-08T10:08:58.143Z,998.33
2019-03-08T10:09:58.141Z,998.39
2019-03-08T10:10:58.126Z,998.38
2019-03-08T10:11:58.131Z,998.34
2019-03-08T10:12:58.105Z,998.41
2019-03-08T10:13:58.090Z,998.39
2019-03-08T10:14:58.078Z,998.39
2019-03-08T10:15:58.073Z,998.46
2019-03-08T10:16:58.059Z,998.49
2019-03-08T10:17:58.056Z,998.39
2019-03-08T10:18:58.035Z,998.42
2019-03-08T10:19:58.022Z,998.45
2019-03-08T10:20:58.020Z,998.48
2019-03-08T10:21:58.007Z,998.50
2019-03-08T10:22:58.010Z,998.50
2019-03-08T10:23:57.982Z,998.49
2019-03-08T10:24:57.981Z,998.53
2019-03-08T10:25:57.956Z,998.58
2019-03-08T10:26:57.951Z,998.53
2019-03-08T10:27:57.984Z,998.54
2019-03-08T10:28:57.926Z,998.57
2019-03-08T10:29:57.923Z,998.54
2019-03-08T10:30:57.907Z,998.49
2019-03-08T10:31:57.894Z,998.51
2019-03-08T10:32:57.886Z,998.50
2019-03-08T10:33:57.887Z,998.52
2019-03-08T10:34:57.863Z,998.54
2019-03-08T10:35:57.853Z,998.57
2019-03-08T10:36:57.842Z,998.55
2019-03-08T10:37:57.824Z,998.52
2019-03-08T10:38:57.829Z,998.56
2019-03-08T10:39:57.805Z,998.64
2019-03-08T10:40:57.791Z,998.64
2019-03-08T10:41:57.790Z,998.65
2019-03-08T10:42:58.849Z,998.64
2019-03-08T10:43:57.776Z,998.68
2019-03-08T10:44:57.752Z,998.66
2019-03-08T10:45:57.742Z,998.69
2019-03-08T10:46:57.730Z,998.71
2019-03-08T10:47:57.723Z,998.82
2019-03-08T10:48:57.730Z,998.82
2019-03-08T10:49:57.704Z,998.77
2019-03-08T10:50:57.691Z,998.78
2019-03-08T10:51:57.674Z,998.78
2019-03-08T10:52:57.660Z,998.82
2019-03-08T10:54:00.734Z,998.86
2019-03-08T10:54:58.524Z,998.92
2019-03-08T10:55:57.633Z,998.92
2019-03-08T10:56:57.624Z,998.90
2019-03-08T10:57:57.605Z,998.91
2019-03-08T10:58:57.598Z,998.89
2019-03-08T10:59:57.602Z,998.94
2019-03-08T11:00:57.572Z,998.91
2019-03-08T11:01:57.586Z,999.00
2019-03-08T11:02:57.555Z,999.07
2019-03-08T11:03:57.542Z,999.13
2019-03-08T11:04:57.533Z,999.05
2019-03-08T11:05:57.538Z,999.00
2019-03-08T11:06:57.512Z,999.12
2019-03-08T11:07:57.501Z,999.03
2019-03-08T11:08:57.547Z,999.00
2019-03-08T11:09:57.484Z,999.04
2019-03-08T11:11:05.926Z,999.00
2019-03-08T11:11:58.455Z,998.99
2019-03-08T11:12:57.440Z,999.12
2019-03-08T11:13:57.438Z,999.06
2019-03-08T11:14:57.437Z,999.00
2019-03-08T11:15:57.413Z,999.01
2019-03-08T11:16:57.405Z,999.04
2019-03-08T11:17:57.386Z,999.02
2019-03-08T11:18:57.379Z,999.09
2019-03-08T11:19:57.381Z,999.19
2019-03-08T11:20:57.362Z,999.14
2019-03-08T11:21:57.345Z,999.20
2019-03-08T11:22:57.372Z,999.20
2019-03-08T11:23:57.325Z,999.20
2019-03-08T11:24:57.322Z,999.27
2019-03-08T11:25:57.308Z,999.34
2019-03-08T11:27:04.806Z,999.33
2019-03-08T11:27:58.285Z,999.30
2019-03-08T11:28:57.284Z,999.22
2019-03-08T11:29:57.271Z,999.29
2019-03-08T11:30:57.248Z,999.30
2019-03-08T11:31:57.238Z,999.40
2019-03-08T11:32:57.224Z,999.32
2019-03-08T11:33:57.222Z,999.30
2019-03-08T11:34:57.212Z,999.36
2019-03-08T11:35:57.205Z,999.47
2019-03-08T11:36:57.192Z,999.41
2019-03-08T11:37:57.190Z,999.39
2019-03-08T11:38:57.163Z,999.45
2019-03-08T11:39:57.151Z,999.44
2019-03-08T11:40:57.143Z,999.47
2019-03-08T11:41:57.145Z,999.47
2019-03-08T11:42:57.118Z,999.58
2019-03-08T11:43:57.108Z,999.53
2019-03-08T11:44:57.100Z,999.53
2019-03-08T11:45:57.093Z,999.53
2019-03-08T11:46:57.085Z,999.58
2019-03-08T11:47:57.079Z,999.55
2019-03-08T11:48:57.055Z,999.55
2019-03-08T11:49:57.036Z,999.59
2019-03-08T11:50:57.030Z,999.60
2019-03-08T11:51:57.021Z,999.64
2019-03-08T11:52:57.030Z,999.64
2019-03-08T11:53:56.993Z,999.59
2019-03-08T11:54:56.983Z,999.64
2019-03-08T11:55:56.974Z,999.57
2019-03-08T11:56:56.963Z,999.63
2019-03-08T11:57:56.958Z,999.56
2019-03-08T11:58:57.135Z,999.58
2019-03-08T11:59:56.931Z,999.57
2019-03-08T12:00:56.923Z,999.60
2019-03-08T12:01:56.906Z,999.57
2019-03-08T12:02:56.926Z,999.60
2019-03-08T12:03:56.930Z,999.53
2019-03-08T12:04:56.886Z,999.56
2019-03-08T12:05:56.910Z,999.58
2019-03-08T12:06:56.855Z,999.53
2019-03-08T12:07:56.861Z,999.59
2019-03-08T12:08:56.906Z,999.54
2019-03-08T12:09:56.836Z,999.54
2019-03-08T12:10:56.815Z,999.55
2019-03-08T12:11:56.800Z,999.50
2019-03-08T12:12:56.793Z,999.53
2019-03-08T12:13:56.774Z,999.54
2019-03-08T12:14:56.784Z,999.45
2019-03-08T12:15:56.753Z,999.42
2019-03-08T12:16:56.742Z,999.57
2019-03-08T12:17:56.743Z,999.55
2019-03-08T12:18:56.724Z,999.48
2019-03-08T12:19:56.718Z,999.51
2019-03-08T12:20:56.716Z,999.42
2019-03-08T12:21:56.685Z,999.44
2019-03-08T12:22:56.677Z,999.47
2019-03-08T12:23:56.673Z,999.53
2019-03-08T12:24:56.666Z,999.52
2019-03-08T12:25:56.744Z,999.49
2019-03-08T12:26:56.649Z,999.56
2019-03-08T12:27:57.032Z,999.63